Terminal Aerodrome Forecast
Issued by NWS

Home | Current Version | Previous Version | Text Only | Print | Product List | Glossary On
Versions: 1 2 3 4 5 6 7 8 9 10 11 12 13 14 15 16 17 18 19 20 21
000
FTUS41 KGYX 010755 AAB
TAFLEB
TAF AMD
KLEB 010755Z 0108/0206 05004KT 1 1/2SM BR SCT001
     FM011000 00000KT 1/2SM FG VV002
     FM011300 VRB03KT P6SM SKC
     FM020000 00000KT P6SM SCT100
      TEMPO 0204/0206 1SM BR SCT001=

USA.gov is the U.S. government's official web portal to all federal, state and local government web resources and services.